Osborn, Kentucky
Current Conditions -  °F | °C
As of 1:55 AM on Thursday 27 Nov 2014 (Local Time) from KPBX Reporting Station
Overcast Overcast  
Wind Chill: 30°   Ceiling: 4400
Heat Index: 35°   Visibility: 10mi
Dew Point: 32°   Wind: 6mph
Humidity: 88%   Direction: 10°N
Pressure: 29.97"   Gusts: NA
Location:  37.4843°N, 82.6492°W
Report Text: KPBX 270655Z AUTO 01005KT 10SM SCT006 BKN044 OVC080 02/00 A2997 RMK AO2 T00180000
Loading
Personal Weather Stations






























Interactive Weather Map New forecast layout! Learn more

10-Day Weather Forecast

Advertisements
Track Severe Weather on mobile